Terminal Aerodrome Forecast
Issued by NWS

Home | Current Version | Previous Version | Text Only | Print | Product List | Glossary On
Versions: 1 2 3 4 5 6 7 8 9 10 11 12 13 14 15 16 17 18 19 20 21 22 23 24 25 26 27 28 29 30 31 32 33 34
603
FTAK31 PANC 252339
TAFATK
TAF
PATK 252339Z 2600/2624 VRB04KT P6SM -SHRA SCT015 BKN035
      TEMPO 2600/2604 5SM -SHRA BKN015
     FM260400 VRB03KT P6SM VCSH SCT035 OVC050
     FM260800 VRB03KT P6SM SCT050 BKN090=

USA.gov is the U.S. government's official web portal to all federal, state and local government web resources and services.